Time;durP1;ratioP1;P1;durP2;ratioP2;P2;SDS_P1;SDS_P2;PMS_P1;PMS_P2;Temp;Humidity;BMP_temperature;BMP_pressure;BME280_temperature;BME280_humidity;BME280_pressure;Samples;Min_cycle;Max_cycle;Signal;HPM_P1;HPM_P2
2022/07/17 00:01:52;;;;;;;;;;;27.70;37.60;;;;;;8362805;28;19921;-44
2022/07/17 00:05:53;;;;;;;;;;;27.80;37.70;;;;;;8363224;28;20050;-44
2022/07/17 00:09:54;;;;;;;;;;;27.70;37.60;;;;;;8363245;28;19917;-44
2022/07/17 00:13:54;;;;;;;;;;;27.70;37.60;;;;;;8362715;28;20385;-44
2022/07/17 00:17:55;;;;;;;;;;;27.70;37.60;;;;;;8363180;28;19924;-43
2022/07/17 00:21:55;;;;;;;;;;;27.70;37.60;;;;;;8363148;28;19949;-44
2022/07/17 00:25:56;;;;;;;;;;;27.70;37.60;;;;;;8362329;28;19924;-44
2022/07/17 00:29:56;;;;;;;;;;;27.70;37.60;;;;;;8362743;28;19936;-44
2022/07/17 00:33:56;;;;;;;;;;;27.70;37.60;;;;;;8362867;28;20338;-44
2022/07/17 00:37:57;;;;;;;;;;;27.70;37.60;;;;;;8362251;28;19917;-44
2022/07/17 00:41:57;;;;;;;;;;;27.60;37.50;;;;;;8362918;28;20016;-43
2022/07/17 00:45:58;;;;;;;;;;;27.60;37.50;;;;;;8362516;28;19920;-45
2022/07/17 00:49:59;;;;;;;;;;;27.60;37.50;;;;;;8362309;28;19991;-44
2022/07/17 00:54:00;;;;;;;;;;;27.60;37.60;;;;;;8367746;28;19920;-44
2022/07/17 00:58:02;;;;;;;;;;;27.60;37.50;;;;;;8368890;28;19920;-44
2022/07/17 01:02:03;;;;;;;;;;;27.60;37.60;;;;;;8368066;28;19921;-45
2022/07/17 01:06:04;;;;;;;;;;;27.60;37.60;;;;;;8367274;28;19912;-44
2022/07/17 01:10:05;;;;;;;;;;;27.60;37.60;;;;;;8361764;28;19921;-43
2022/07/17 01:14:05;;;;;;;;;;;27.50;37.60;;;;;;8370968;28;20475;-43
2022/07/17 01:18:07;;;;;;;;;;;27.30;33.60;;;;;;8391427;28;19923;-42
2022/07/17 01:22:07;;;;;;;;;;;27.00;32.20;;;;;;8384792;28;19963;-43
2022/07/17 01:26:08;;;;;;;;;;;26.70;31.40;;;;;;8367492;28;19921;-43
2022/07/17 01:30:09;;;;;;;;;;;26.50;31.90;;;;;;8382407;28;20415;-43
2022/07/17 01:34:10;;;;;;;;;;;26.30;31.90;;;;;;8381358;28;19923;-44
2022/07/17 01:38:10;;;;;;;;;;;26.10;32.20;;;;;;8349807;28;19955;-40
2022/07/17 01:42:11;;;;;;;;;;;26.00;32.70;;;;;;8382319;28;19923;-43
2022/07/17 01:46:11;;;;;;;;;;;26.10;34.90;;;;;;8398351;28;19919;-43
2022/07/17 01:50:12;;;;;;;;;;;26.30;35.00;;;;;;8396965;28;19928;-44
2022/07/17 01:54:12;;;;;;;;;;;26.50;35.40;;;;;;8365492;28;19917;-43
2022/07/17 01:58:13;;;;;;;;;;;26.60;35.50;;;;;;8365650;28;19929;-43
2022/07/17 02:02:15;;;;;;;;;;;26.70;35.50;;;;;;8366976;28;20348;-44
2022/07/17 02:06:16;;;;;;;;;;;26.80;35.50;;;;;;8391558;28;19967;-44
2022/07/17 02:10:16;;;;;;;;;;;26.90;35.60;;;;;;8340284;28;20448;-43
2022/07/17 02:14:17;;;;;;;;;;;26.90;35.60;;;;;;8363811;28;19928;-44
2022/07/17 02:18:17;;;;;;;;;;;26.90;35.60;;;;;;8372783;28;19923;-45
2022/07/17 02:22:17;;;;;;;;;;;26.90;35.60;;;;;;8399323;28;19920;-44
2022/07/17 02:26:18;;;;;;;;;;;26.90;35.60;;;;;;8365562;28;20408;-44
2022/07/17 02:30:18;;;;;;;;;;;26.90;35.60;;;;;;8365938;28;19920;-45
2022/07/17 02:34:19;;;;;;;;;;;26.90;35.70;;;;;;8365734;28;19924;-43
2022/07/17 02:38:19;;;;;;;;;;;27.00;36.00;;;;;;8365110;28;19917;-45
2022/07/17 02:42:23;;;;;;;;;;;27.00;36.60;;;;;;8354771;28;19917;-45
2022/07/17 02:46:24;;;;;;;;;;;27.00;36.00;;;;;;8337306;28;19963;-44
2022/07/17 02:50:24;;;;;;;;;;;27.00;36.20;;;;;;8360742;28;19964;-44
2022/07/17 02:54:25;;;;;;;;;;;27.00;36.30;;;;;;8360559;28;19924;-43
2022/07/17 02:58:25;;;;;;;;;;;26.90;36.40;;;;;;8352145;28;19917;-43
2022/07/17 03:02:26;;;;;;;;;;;26.90;36.80;;;;;;8354034;28;19974;-44
2022/07/17 03:06:26;;;;;;;;;;;27.00;37.00;;;;;;8345568;28;19928;-44
2022/07/17 03:10:27;;;;;;;;;;;26.90;37.00;;;;;;8348997;28;20275;-43
2022/07/17 03:14:27;;;;;;;;;;;26.90;37.10;;;;;;8339117;28;19921;-43
2022/07/17 03:18:27;;;;;;;;;;;26.90;37.20;;;;;;8352615;28;19925;-42
2022/07/17 03:22:28;;;;;;;;;;;26.90;37.50;;;;;;8336173;28;20456;-43
2022/07/17 03:26:28;;;;;;;;;;;26.90;37.20;;;;;;8356509;28;19917;-44
2022/07/17 03:30:29;;;;;;;;;;;26.90;37.20;;;;;;8350002;28;20397;-43
2022/07/17 03:34:29;;;;;;;;;;;26.90;37.30;;;;;;8356840;28;19924;-43
2022/07/17 03:38:30;;;;;;;;;;;26.90;37.20;;;;;;8348060;28;19963;-44
2022/07/17 03:42:30;;;;;;;;;;;26.80;37.00;;;;;;8356934;28;19924;-43
2022/07/17 03:46:31;;;;;;;;;;;26.80;37.10;;;;;;8346339;28;20378;-42
2022/07/17 03:50:31;;;;;;;;;;;26.80;37.20;;;;;;8341873;28;19925;-43
2022/07/17 03:54:31;;;;;;;;;;;26.90;37.50;;;;;;8355084;28;20361;-43
2022/07/17 03:58:32;;;;;;;;;;;26.80;37.50;;;;;;8354357;28;20016;-43
2022/07/17 04:02:32;;;;;;;;;;;26.80;37.50;;;;;;8349305;28;20362;-44
2022/07/17 04:06:33;;;;;;;;;;;26.80;37.50;;;;;;8350011;28;20011;-43
2022/07/17 04:10:35;;;;;;;;;;;26.80;37.50;;;;;;8349666;28;19968;-43
2022/07/17 04:14:35;;;;;;;;;;;26.80;37.60;;;;;;8340207;28;19921;-43
2022/07/17 04:18:36;;;;;;;;;;;26.80;38.10;;;;;;8341006;28;20374;-43
2022/07/17 04:22:36;;;;;;;;;;;26.80;37.80;;;;;;8352365;28;19921;-43
2022/07/17 04:26:37;;;;;;;;;;;26.80;37.70;;;;;;8355758;28;19917;-43
2022/07/17 04:30:37;;;;;;;;;;;26.80;37.80;;;;;;8361396;28;19925;-44
2022/07/17 04:34:38;;;;;;;;;;;26.80;37.80;;;;;;8362379;28;19920;-44
2022/07/17 04:38:38;;;;;;;;;;;26.80;37.80;;;;;;8352452;28;19982;-44
2022/07/17 04:42:39;;;;;;;;;;;26.80;37.90;;;;;;8353860;28;20297;-43
2022/07/17 04:46:39;;;;;;;;;;;26.80;37.90;;;;;;8354407;28;19917;-44
2022/07/17 04:50:39;;;;;;;;;;;26.80;37.90;;;;;;8357922;28;19963;-44
2022/07/17 04:54:40;;;;;;;;;;;26.70;37.80;;;;;;8351503;28;19963;-43
2022/07/17 04:58:40;;;;;;;;;;;26.80;37.70;;;;;;8354557;28;19996;-44
2022/07/17 05:02:41;;;;;;;;;;;26.80;37.70;;;;;;8358236;28;19921;-44
2022/07/17 05:06:41;;;;;;;;;;;26.80;37.70;;;;;;8359023;28;19917;-43
2022/07/17 05:10:42;;;;;;;;;;;26.70;37.80;;;;;;8348952;28;19929;-44
2022/07/17 05:14:42;;;;;;;;;;;26.70;37.70;;;;;;8353445;28;19925;-44
2022/07/17 05:18:43;;;;;;;;;;;26.70;38.00;;;;;;8342158;28;19921;-44
2022/07/17 05:22:43;;;;;;;;;;;26.70;37.90;;;;;;8348213;28;19917;-44
2022/07/17 05:26:43;;;;;;;;;;;26.70;37.90;;;;;;8352188;28;20024;-44
2022/07/17 05:30:44;;;;;;;;;;;26.70;38.00;;;;;;8351212;28;20011;-44
2022/07/17 05:34:44;;;;;;;;;;;26.80;37.90;;;;;;8343787;28;20392;-44
2022/07/17 05:38:45;;;;;;;;;;;26.80;38.00;;;;;;8351768;28;19917;-43
2022/07/17 05:42:45;;;;;;;;;;;26.80;38.00;;;;;;8361920;28;19917;-43
2022/07/17 05:46:46;;;;;;;;;;;26.80;38.00;;;;;;8351660;28;19924;-43
2022/07/17 05:50:46;;;;;;;;;;;26.80;38.00;;;;;;8355441;28;19931;-43
2022/07/17 05:54:47;;;;;;;;;;;26.80;38.00;;;;;;8356892;28;20283;-45
2022/07/17 05:58:47;;;;;;;;;;;26.80;38.20;;;;;;8357767;28;19971;-45
2022/07/17 06:02:47;;;;;;;;;;;26.80;38.30;;;;;;8355380;28;20023;-43
2022/07/17 06:06:48;;;;;;;;;;;26.80;38.20;;;;;;8348276;28;19921;-44
2022/07/17 06:10:48;;;;;;;;;;;26.80;38.10;;;;;;8356157;28;20025;-44
2022/07/17 06:14:49;;;;;;;;;;;26.80;38.10;;;;;;8350549;28;19982;-44
2022/07/17 06:18:49;;;;;;;;;;;26.80;38.00;;;;;;8344523;28;19952;-43
2022/07/17 06:22:50;;;;;;;;;;;26.80;38.00;;;;;;8357528;28;19929;-44
2022/07/17 06:26:50;;;;;;;;;;;26.70;38.20;;;;;;8349336;28;19921;-44
2022/07/17 06:30:51;;;;;;;;;;;26.70;38.20;;;;;;8347982;28;19951;-44
2022/07/17 06:34:52;;;;;;;;;;;26.80;38.30;;;;;;8358468;28;20365;-44
2022/07/17 06:38:52;;;;;;;;;;;26.70;38.80;;;;;;8342099;28;20008;-44
2022/07/17 06:42:52;;;;;;;;;;;26.80;38.30;;;;;;8351279;28;19963;-44
2022/07/17 06:46:53;;;;;;;;;;;26.80;38.30;;;;;;8345781;28;19970;-44
2022/07/17 06:50:53;;;;;;;;;;;26.80;38.40;;;;;;8351890;28;19960;-44
2022/07/17 06:54:54;;;;;;;;;;;26.80;38.30;;;;;;8354513;28;19924;-45
2022/07/17 06:58:54;;;;;;;;;;;26.80;38.20;;;;;;8350449;28;19956;-44
2022/07/17 07:02:55;;;;;;;;;;;26.80;38.10;;;;;;8345216;28;19924;-44
2022/07/17 07:06:55;;;;;;;;;;;26.80;38.00;;;;;;8354236;28;19939;-46
2022/07/17 07:10:56;;;;;;;;;;;26.80;38.20;;;;;;8344442;28;19924;-44
2022/07/17 07:14:57;;;;;;;;;;;26.80;38.20;;;;;;8345724;28;19928;-44
2022/07/17 07:18:57;;;;;;;;;;;26.80;38.20;;;;;;8354749;28;19917;-44
2022/07/17 07:22:57;;;;;;;;;;;26.80;38.20;;;;;;8356659;28;20420;-45
2022/07/17 07:26:58;;;;;;;;;;;26.80;38.20;;;;;;8353562;28;19933;-45
2022/07/17 07:30:58;;;;;;;;;;;26.80;38.10;;;;;;8356798;28;20259;-43
2022/07/17 07:34:59;;;;;;;;;;;26.80;38.30;;;;;;8345701;28;19918;-44
2022/07/17 07:38:59;;;;;;;;;;;26.80;38.40;;;;;;8354979;28;19923;-45
2022/07/17 07:43:00;;;;;;;;;;;26.80;38.30;;;;;;8350565;28;20385;-44
2022/07/17 07:47:00;;;;;;;;;;;26.80;38.20;;;;;;8351961;28;19920;-44
2022/07/17 07:51:01;;;;;;;;;;;26.80;38.20;;;;;;8348153;28;20522;-44
2022/07/17 07:55:01;;;;;;;;;;;26.80;38.30;;;;;;8345390;28;19917;-43
2022/07/17 07:59:02;;;;;;;;;;;26.80;38.60;;;;;;8349815;28;19921;-43
2022/07/17 08:03:03;;;;;;;;;;;26.90;38.70;;;;;;8343990;28;19917;-43
2022/07/17 08:07:03;;;;;;;;;;;26.80;38.50;;;;;;8376094;28;19981;-43
2022/07/17 08:11:04;;;;;;;;;;;26.90;38.80;;;;;;8387298;28;20282;-43
2022/07/17 08:15:05;;;;;;;;;;;26.90;38.80;;;;;;8367277;28;20012;-43
2022/07/17 08:19:06;;;;;;;;;;;26.90;38.90;;;;;;8329355;28;20587;-43
2022/07/17 08:23:06;;;;;;;;;;;26.90;37.60;;;;;;8355134;28;19917;-44
2022/07/17 08:27:06;;;;;;;;;;;26.80;37.80;;;;;;8363150;28;19976;-44
2022/07/17 08:31:07;;;;;;;;;;;26.80;37.90;;;;;;8362744;28;19947;-44
2022/07/17 08:35:08;;;;;;;;;;;26.80;37.60;;;;;;8362203;28;19917;-43
2022/07/17 08:39:08;;;;;;;;;;;26.80;37.60;;;;;;8362786;28;20430;-44
2022/07/17 08:43:09;;;;;;;;;;;26.90;37.50;;;;;;8344979;28;19928;-43
2022/07/17 08:47:13;;;;;;;;;;;26.90;37.50;;;;;;8362154;28;20190;-43
2022/07/17 08:51:16;;;;;;;;;;;26.90;37.50;;;;;;8362281;28;19925;-44
2022/07/17 08:55:17;;;;;;;;;;;27.00;37.50;;;;;;8362197;28;19913;-44
2022/07/17 08:59:17;;;;;;;;;;;26.90;37.50;;;;;;8361945;28;20031;-43
2022/07/17 09:03:18;;;;;;;;;;;26.90;37.50;;;;;;8362446;28;20282;-44
2022/07/17 09:07:18;;;;;;;;;;;27.00;37.60;;;;;;8362318;28;19920;-43
2022/07/17 09:11:18;;;;;;;;;;;27.00;37.60;;;;;;8361514;28;20019;-44
2022/07/17 09:15:19;;;;;;;;;;;27.00;37.60;;;;;;8367734;28;19925;-44
2022/07/17 09:19:36;;;;;;;;;;;27.00;37.50;;;;;;8368346;28;19913;-44
2022/07/17 09:23:37;;;;;;;;;;;27.00;37.60;;;;;;8368166;28;20385;-44
2022/07/17 09:27:37;;;;;;;;;;;27.10;37.60;;;;;;8368801;28;19970;-44
2022/07/17 09:31:38;;;;;;;;;;;27.10;37.60;;;;;;8367070;28;19925;-44
2022/07/17 09:36:04;;;;;;;;;;;27.10;37.60;;;;;;8367784;28;20011;-44
2022/07/17 09:40:09;;;;;;;;;;;27.10;37.60;;;;;;8364385;28;19913;-44
2022/07/17 09:44:09;;;;;;;;;;;27.10;37.60;;;;;;8367252;28;19928;-44
2022/07/17 09:48:10;;;;;;;;;;;27.20;37.70;;;;;;8367185;28;19936;-44
2022/07/17 09:52:11;;;;;;;;;;;27.20;37.70;;;;;;8367038;28;19925;-51
2022/07/17 09:56:14;;;;;;;;;;;27.20;37.70;;;;;;8366519;28;19917;-44
2022/07/17 10:00:15;;;;;;;;;;;27.20;37.70;;;;;;8367071;28;20041;-44
2022/07/17 10:04:16;;;;;;;;;;;27.30;37.70;;;;;;8366987;28;19916;-44
2022/07/17 10:08:17;;;;;;;;;;;27.30;37.70;;;;;;8366349;28;19913;-43
2022/07/17 10:12:19;;;;;;;;;;;27.30;37.60;;;;;;8365199;28;19925;-43
2022/07/17 10:16:24;;;;;;;;;;;27.40;37.70;;;;;;8366698;28;19925;-44
2022/07/17 10:20:25;;;;;;;;;;;27.40;37.60;;;;;;8365844;28;19971;-44
2022/07/17 10:24:27;;;;;;;;;;;27.40;37.60;;;;;;8365572;28;19921;-44
2022/07/17 10:28:38;;;;;;;;;;;27.40;37.60;;;;;;8366525;28;20417;-43
2022/07/17 10:32:38;;;;;;;;;;;27.40;37.60;;;;;;8365783;28;19925;-43
2022/07/17 10:36:42;;;;;;;;;;;27.40;37.60;;;;;;8365823;28;20441;-44
2022/07/17 10:40:43;;;;;;;;;;;27.50;37.60;;;;;;8365123;28;19963;-44
2022/07/17 10:44:43;;;;;;;;;;;27.50;38.10;;;;;;8347826;28;19917;-44
2022/07/17 10:48:47;;;;;;;;;;;27.50;37.50;;;;;;8365600;28;19917;-44
2022/07/17 10:53:00;;;;;;;;;;;27.50;38.00;;;;;;8364736;28;19925;-44
2022/07/17 10:57:01;;;;;;;;;;;27.50;37.50;;;;;;8365415;28;20377;-44
2022/07/17 11:01:01;;;;;;;;;;;27.60;37.60;;;;;;8364912;28;19962;-44
2022/07/17 11:05:06;;;;;;;;;;;27.60;37.60;;;;;;8364369;28;19917;-44
2022/07/17 11:09:10;;;;;;;;;;;27.60;37.50;;;;;;8365033;28;19913;-44
2022/07/17 11:13:15;;;;;;;;;;;27.60;37.50;;;;;;8364865;28;19932;-44
2022/07/17 11:17:18;;;;;;;;;;;27.60;37.50;;;;;;8364051;28;19964;-43
2022/07/17 11:21:18;;;;;;;;;;;27.60;37.50;;;;;;8364410;28;19986;-44
2022/07/17 11:25:19;;;;;;;;;;;27.70;37.60;;;;;;8364317;28;19921;-44
2022/07/17 11:29:20;;;;;;;;;;;27.70;37.50;;;;;;8363742;28;19913;-43
2022/07/17 11:33:20;;;;;;;;;;;27.70;37.40;;;;;;8364077;28;19921;-44
2022/07/17 11:37:21;;;;;;;;;;;27.70;37.50;;;;;;8363760;28;19917;-44
2022/07/17 11:41:29;;;;;;;;;;;27.80;37.50;;;;;;8363350;28;20297;-43
2022/07/17 11:45:30;;;;;;;;;;;27.80;37.50;;;;;;8364095;28;19917;-43
2022/07/17 11:49:31;;;;;;;;;;;27.80;37.50;;;;;;8363500;28;19913;-42
2022/07/17 11:53:33;;;;;;;;;;;27.80;37.40;;;;;;8363797;28;19920;-44
2022/07/17 11:57:41;;;;;;;;;;;27.90;37.50;;;;;;8363500;28;19917;-44
2022/07/17 12:01:43;;;;;;;;;;;27.90;37.50;;;;;;8363072;28;20297;-44
2022/07/17 12:05:43;;;;;;;;;;;27.90;37.40;;;;;;8363632;28;19966;-45
2022/07/17 12:09:44;;;;;;;;;;;27.90;37.40;;;;;;8363522;28;19913;-44
2022/07/17 12:13:46;;;;;;;;;;;28.00;37.40;;;;;;8363058;28;19925;-43
2022/07/17 12:17:47;;;;;;;;;;;28.00;37.40;;;;;;8363214;28;19917;-44
2022/07/17 12:21:55;;;;;;;;;;;28.00;37.40;;;;;;8363096;28;20413;-44
2022/07/17 12:26:12;;;;;;;;;;;28.00;37.40;;;;;;8362564;28;19967;-43
2022/07/17 12:30:12;;;;;;;;;;;28.00;37.30;;;;;;8363092;28;19924;-48
2022/07/17 12:34:13;;;;;;;;;;;28.10;37.40;;;;;;8363319;28;20374;-44
2022/07/17 12:38:13;;;;;;;;;;;28.10;37.40;;;;;;8362410;28;19963;-44
2022/07/17 12:42:14;;;;;;;;;;;28.10;37.30;;;;;;8362864;28;20390;-44
2022/07/17 12:46:16;;;;;;;;;;;28.10;37.30;;;;;;8362622;28;19996;-44
2022/07/17 12:50:17;;;;;;;;;;;28.10;37.30;;;;;;8367763;28;19952;-43
2022/07/17 12:54:17;;;;;;;;;;;28.20;37.30;;;;;;8369300;28;19917;-44
2022/07/17 12:58:18;;;;;;;;;;;28.20;37.30;;;;;;8368853;28;19962;-45
2022/07/17 13:02:18;;;;;;;;;;;28.20;37.30;;;;;;8368640;28;19924;-43
2022/07/17 13:06:19;;;;;;;;;;;28.20;37.30;;;;;;8357778;28;19921;-43
2022/07/17 13:10:19;;;;;;;;;;;28.20;37.30;;;;;;8338412;28;19956;-43
2022/07/17 13:14:20;;;;;;;;;;;28.20;37.30;;;;;;8368318;28;20004;-44
2022/07/17 13:18:20;;;;;;;;;;;28.30;37.30;;;;;;8368137;28;20366;-43
2022/07/17 13:22:21;;;;;;;;;;;28.30;37.30;;;;;;8368208;28;19913;-43
2022/07/17 13:26:21;;;;;;;;;;;28.30;37.30;;;;;;8367420;28;19921;-43
2022/07/17 13:30:22;;;;;;;;;;;28.30;37.30;;;;;;8368021;28;19916;-43
2022/07/17 13:34:22;;;;;;;;;;;28.30;37.20;;;;;;8368285;28;20008;-43
2022/07/17 13:38:23;;;;;;;;;;;28.30;37.20;;;;;;8367145;28;20402;-43
2022/07/17 13:42:23;;;;;;;;;;;28.30;37.20;;;;;;8367499;28;20285;-43
2022/07/17 13:46:24;;;;;;;;;;;28.30;37.10;;;;;;8367408;28;19916;-43
2022/07/17 13:50:24;;;;;;;;;;;28.40;37.20;;;;;;8348859;28;20339;-44
2022/07/17 13:54:25;;;;;;;;;;;28.40;37.20;;;;;;8367864;28;19917;-43
2022/07/17 13:58:26;;;;;;;;;;;28.40;37.20;;;;;;8367164;28;19972;-44
2022/07/17 14:02:28;;;;;;;;;;;28.40;37.20;;;;;;8366432;28;20011;-45
2022/07/17 14:06:28;;;;;;;;;;;28.40;37.20;;;;;;8367320;28;19951;-43
2022/07/17 14:10:28;;;;;;;;;;;28.40;37.10;;;;;;8367038;28;19917;-44
2022/07/17 14:14:29;;;;;;;;;;;28.40;37.20;;;;;;8366509;28;19925;-44
2022/07/17 14:18:29;;;;;;;;;;;28.50;37.00;;;;;;8366504;28;19975;-44
2022/07/17 14:22:30;;;;;;;;;;;28.50;37.10;;;;;;8366379;28;19913;-44
2022/07/17 14:26:30;;;;;;;;;;;28.50;37.10;;;;;;8365862;28;19924;-44
2022/07/17 14:30:32;;;;;;;;;;;28.50;37.10;;;;;;8366193;28;20386;-44
2022/07/17 14:34:33;;;;;;;;;;;28.50;37.20;;;;;;8365933;28;20373;-43
2022/07/17 14:38:33;;;;;;;;;;;28.50;37.10;;;;;;8365679;28;19916;-44
2022/07/17 14:42:34;;;;;;;;;;;28.50;37.20;;;;;;8365681;28;19913;-44
2022/07/17 14:46:35;;;;;;;;;;;28.50;37.10;;;;;;8365076;28;19924;-44
2022/07/17 14:50:35;;;;;;;;;;;28.60;37.20;;;;;;8365760;28;19921;-44
2022/07/17 14:54:36;;;;;;;;;;;28.60;37.20;;;;;;8365238;28;20301;-45
2022/07/17 14:58:36;;;;;;;;;;;28.60;37.10;;;;;;8364675;28;20366;-44
2022/07/17 15:02:36;;;;;;;;;;;28.60;37.20;;;;;;8365115;28;19924;-43
2022/07/17 15:06:38;;;;;;;;;;;28.60;37.10;;;;;;8364921;28;19917;-44
2022/07/17 15:10:38;;;;;;;;;;;28.60;37.10;;;;;;8364024;28;19991;-44
2022/07/17 15:14:39;;;;;;;;;;;28.60;37.20;;;;;;8364938;28;19929;-44
2022/07/17 15:18:39;;;;;;;;;;;28.60;37.10;;;;;;8346703;28;19971;-42
2022/07/17 15:22:40;;;;;;;;;;;28.60;37.00;;;;;;8363790;28;19912;-43
2022/07/17 15:26:41;;;;;;;;;;;28.60;37.10;;;;;;8346496;28;19913;-44
2022/07/17 15:30:41;;;;;;;;;;;28.60;37.20;;;;;;8364390;28;19925;-45
2022/07/17 15:34:42;;;;;;;;;;;28.60;37.10;;;;;;8363794;28;19924;-44
2022/07/17 15:38:42;;;;;;;;;;;28.60;37.10;;;;;;8364161;28;19917;-43
2022/07/17 15:42:42;;;;;;;;;;;28.60;37.20;;;;;;8363935;28;19923;-43
2022/07/17 15:46:43;;;;;;;;;;;28.70;37.30;;;;;;8363286;28;19927;-44
2022/07/17 15:50:43;;;;;;;;;;;28.70;37.20;;;;;;8363899;28;19921;-44
2022/07/17 15:54:44;;;;;;;;;;;28.70;37.20;;;;;;8363668;28;19924;-44
2022/07/17 15:58:45;;;;;;;;;;;28.70;37.20;;;;;;8377784;28;19919;-44
2022/07/17 16:02:45;;;;;;;;;;;28.70;37.10;;;;;;8382887;28;19917;-44
2022/07/17 16:06:46;;;;;;;;;;;28.70;37.10;;;;;;8360204;28;19920;-44
2022/07/17 16:10:47;;;;;;;;;;;28.70;37.20;;;;;;8362898;28;19932;-44
2022/07/17 16:14:49;;;;;;;;;;;28.70;37.20;;;;;;8363117;28;19921;-44
2022/07/17 16:18:52;;;;;;;;;;;28.70;37.20;;;;;;8363152;28;19979;-44
2022/07/17 16:22:52;;;;;;;;;;;28.70;37.20;;;;;;8364691;28;19921;-45
2022/07/17 16:26:52;;;;;;;;;;;28.70;37.20;;;;;;8369976;28;19963;-44
2022/07/17 16:30:53;;;;;;;;;;;28.70;37.20;;;;;;8369862;28;19925;-44
2022/07/17 16:34:53;;;;;;;;;;;28.70;37.30;;;;;;8369409;28;19917;-44
2022/07/17 16:38:54;;;;;;;;;;;28.70;37.30;;;;;;8369917;28;19917;-45
2022/07/17 16:42:55;;;;;;;;;;;28.70;37.20;;;;;;8369443;28;19952;-44
2022/07/17 16:46:55;;;;;;;;;;;28.70;37.30;;;;;;8368920;28;19917;-46
2022/07/17 16:50:55;;;;;;;;;;;28.70;37.30;;;;;;8369420;28;19921;-45
2022/07/17 16:54:56;;;;;;;;;;;28.70;37.30;;;;;;8369327;28;19917;-45
2022/07/17 16:58:56;;;;;;;;;;;28.70;37.30;;;;;;8368508;28;19917;-44
2022/07/17 17:02:57;;;;;;;;;;;28.70;37.30;;;;;;8369038;28;19917;-44
2022/07/17 17:06:57;;;;;;;;;;;28.70;37.30;;;;;;8368350;28;19996;-44
2022/07/17 17:10:58;;;;;;;;;;;28.70;37.30;;;;;;8367869;28;20274;-44
2022/07/17 17:14:58;;;;;;;;;;;28.70;37.30;;;;;;8368875;28;20329;-45
2022/07/17 17:19:00;;;;;;;;;;;28.70;37.30;;;;;;8368627;28;19960;-45
2022/07/17 17:23:00;;;;;;;;;;;28.70;37.30;;;;;;8367694;28;19917;-44
2022/07/17 17:27:01;;;;;;;;;;;28.70;37.30;;;;;;8368364;28;19944;-45
2022/07/17 17:31:01;;;;;;;;;;;28.70;37.30;;;;;;8368284;28;19929;-44
2022/07/17 17:35:02;;;;;;;;;;;28.70;37.30;;;;;;8367077;28;19978;-46
2022/07/17 17:39:03;;;;;;;;;;;28.70;37.40;;;;;;8368093;28;20027;-44
2022/07/17 17:43:03;;;;;;;;;;;28.70;37.40;;;;;;8364661;28;19939;-44
2022/07/17 17:47:04;;;;;;;;;;;28.70;37.40;;;;;;8365018;28;19920;-44
2022/07/17 17:51:04;;;;;;;;;;;28.70;37.40;;;;;;8365375;28;19971;-44
2022/07/17 17:55:07;;;;;;;;;;;28.70;37.40;;;;;;8367411;28;20297;-43
2022/07/17 17:59:08;;;;;;;;;;;28.70;37.40;;;;;;8348892;28;20399;-43
2022/07/17 18:03:08;;;;;;;;;;;28.70;37.40;;;;;;8365211;28;19920;-44
2022/07/17 18:07:09;;;;;;;;;;;28.70;37.40;;;;;;8364439;28;19939;-45
2022/07/17 18:11:09;;;;;;;;;;;28.60;37.40;;;;;;8364377;28;19929;-44
2022/07/17 18:15:10;;;;;;;;;;;28.60;37.40;;;;;;8364590;28;19929;-44
2022/07/17 18:19:10;;;;;;;;;;;28.60;37.40;;;;;;8366474;28;20294;-43
2022/07/17 18:23:11;;;;;;;;;;;28.60;37.50;;;;;;8365776;28;19924;-44
2022/07/17 18:27:11;;;;;;;;;;;28.60;37.50;;;;;;8366637;28;19920;-44
2022/07/17 18:31:12;;;;;;;;;;;28.60;37.40;;;;;;8360343;28;20301;-43
2022/07/17 18:35:12;;;;;;;;;;;28.60;37.40;;;;;;8360892;28;19916;-44
2022/07/17 18:39:13;;;;;;;;;;;28.60;37.50;;;;;;8365951;28;19917;-43
2022/07/17 18:43:13;;;;;;;;;;;28.60;37.50;;;;;;8365780;28;19959;-43
2022/07/17 18:47:14;;;;;;;;;;;28.60;37.50;;;;;;8361877;28;20111;-44
2022/07/17 18:51:14;;;;;;;;;;;28.60;37.40;;;;;;8365259;28;20027;-43
2022/07/17 18:55:15;;;;;;;;;;;28.60;37.40;;;;;;8365248;28;19962;-43
2022/07/17 18:59:16;;;;;;;;;;;28.60;37.30;;;;;;8364837;28;19917;-44
2022/07/17 19:03:16;;;;;;;;;;;28.50;37.20;;;;;;8365137;28;19920;-43
2022/07/17 19:07:17;;;;;;;;;;;28.50;37.10;;;;;;8364420;28;19923;-43
2022/07/17 19:11:18;;;;;;;;;;;28.60;37.20;;;;;;8363640;28;19932;-43
2022/07/17 19:15:19;;;;;;;;;;;28.50;37.20;;;;;;8364589;28;19928;-43
2022/07/17 19:19:20;;;;;;;;;;;28.50;37.30;;;;;;8364600;28;19916;-43
2022/07/17 19:23:23;;;;;;;;;;;28.50;37.30;;;;;;8363961;28;19984;-44
2022/07/17 19:27:23;;;;;;;;;;;28.50;37.30;;;;;;8364995;28;19913;-43
2022/07/17 19:31:24;;;;;;;;;;;28.50;37.30;;;;;;8364017;28;19924;-43
2022/07/17 19:35:24;;;;;;;;;;;28.50;37.30;;;;;;8363670;28;20336;-43
2022/07/17 19:39:27;;;;;;;;;;;28.50;37.30;;;;;;8363639;28;21278;-43
2022/07/17 19:43:28;;;;;;;;;;;28.50;37.30;;;;;;8363715;28;19924;-44
2022/07/17 19:47:31;;;;;;;;;;;28.50;37.40;;;;;;8363396;28;19916;-44
2022/07/17 19:51:31;;;;;;;;;;;28.50;37.40;;;;;;8363084;28;19932;-44
2022/07/17 19:55:32;;;;;;;;;;;28.50;37.40;;;;;;8362990;28;19916;-44
2022/07/17 19:59:34;;;;;;;;;;;28.40;37.30;;;;;;8363755;28;20286;-44
2022/07/17 20:03:35;;;;;;;;;;;28.40;37.30;;;;;;8363533;28;19917;-43
2022/07/17 20:07:35;;;;;;;;;;;28.40;37.40;;;;;;8363252;28;19964;-44
2022/07/17 20:11:36;;;;;;;;;;;28.40;37.30;;;;;;8363507;28;20385;-44
2022/07/17 20:15:36;;;;;;;;;;;28.40;37.40;;;;;;8363426;28;20348;-44
2022/07/17 20:19:37;;;;;;;;;;;28.40;37.40;;;;;;8362597;28;19913;-45
2022/07/17 20:23:37;;;;;;;;;;;28.40;37.40;;;;;;8362920;28;19912;-44
2022/07/17 20:27:38;;;;;;;;;;;28.40;37.30;;;;;;8363120;28;19916;-44
2022/07/17 20:31:38;;;;;;;;;;;28.40;37.30;;;;;;8362397;28;19979;-43
2022/07/17 20:35:42;;;;;;;;;;;28.40;37.40;;;;;;8362671;28;20376;-44
2022/07/17 20:39:43;;;;;;;;;;;28.40;37.40;;;;;;8362678;28;19921;-44
2022/07/17 20:43:45;;;;;;;;;;;28.40;37.40;;;;;;8362143;28;19920;-45
2022/07/17 20:47:46;;;;;;;;;;;28.40;37.40;;;;;;8363209;28;19955;-44
2022/07/17 20:51:46;;;;;;;;;;;28.40;37.40;;;;;;8362543;28;19932;-44
2022/07/17 20:55:47;;;;;;;;;;;28.40;37.40;;;;;;8362105;28;19913;-44
2022/07/17 20:59:47;;;;;;;;;;;28.30;37.30;;;;;;8362576;28;19921;-44
2022/07/17 21:03:48;;;;;;;;;;;28.30;37.40;;;;;;8362532;28;20282;-43
2022/07/17 21:07:48;;;;;;;;;;;28.30;37.40;;;;;;8362398;28;19924;-44
2022/07/17 21:11:49;;;;;;;;;;;28.30;37.40;;;;;;8368775;28;19928;-44
2022/07/17 21:15:50;;;;;;;;;;;28.30;37.40;;;;;;8368399;28;19924;-44
2022/07/17 21:19:51;;;;;;;;;;;28.30;37.40;;;;;;8361667;28;20011;-43
2022/07/17 21:23:52;;;;;;;;;;;28.30;37.40;;;;;;8342681;28;20359;-44
2022/07/17 21:27:52;;;;;;;;;;;28.30;37.40;;;;;;8368333;28;19923;-44
2022/07/17 21:31:53;;;;;;;;;;;28.30;37.40;;;;;;8367593;28;19924;-44
2022/07/17 21:35:53;;;;;;;;;;;28.20;37.40;;;;;;8367775;28;19916;-45
2022/07/17 21:39:54;;;;;;;;;;;28.20;37.40;;;;;;8367919;28;20000;-44
2022/07/17 21:43:54;;;;;;;;;;;28.20;37.40;;;;;;8367287;28;19920;-44
2022/07/17 21:47:55;;;;;;;;;;;28.20;37.40;;;;;;8367780;28;19920;-44
2022/07/17 21:51:55;;;;;;;;;;;28.20;37.40;;;;;;8367522;28;19928;-43
2022/07/17 21:55:56;;;;;;;;;;;28.20;37.50;;;;;;8366808;28;19923;-44
2022/07/17 21:59:56;;;;;;;;;;;28.20;37.40;;;;;;8367271;28;19952;-44
2022/07/17 22:03:57;;;;;;;;;;;28.20;37.40;;;;;;8366079;28;20023;-44
2022/07/17 22:07:57;;;;;;;;;;;28.20;37.40;;;;;;8347875;28;19948;-44
2022/07/17 22:11:58;;;;;;;;;;;28.10;37.40;;;;;;8366950;28;20420;-44
2022/07/17 22:15:59;;;;;;;;;;;28.10;37.40;;;;;;8348911;28;19946;-44
2022/07/17 22:20:00;;;;;;;;;;;28.10;37.40;;;;;;8364914;28;19916;-43
2022/07/17 22:24:01;;;;;;;;;;;28.10;37.40;;;;;;8366545;28;20366;-43
2022/07/17 22:28:02;;;;;;;;;;;28.10;37.40;;;;;;8366642;28;19917;-43
2022/07/17 22:32:03;;;;;;;;;;;28.10;37.40;;;;;;8365555;28;19925;-44
2022/07/17 22:36:04;;;;;;;;;;;28.10;37.40;;;;;;8366008;28;19928;-43
2022/07/17 22:40:05;;;;;;;;;;;28.10;37.40;;;;;;8365867;28;19916;-43
2022/07/17 22:44:05;;;;;;;;;;;28.10;37.40;;;;;;8365329;28;19950;-43
2022/07/17 22:48:06;;;;;;;;;;;28.00;37.40;;;;;;8366109;28;19912;-43
2022/07/17 22:52:06;;;;;;;;;;;28.00;37.30;;;;;;8365556;28;19969;-43
2022/07/17 22:56:07;;;;;;;;;;;28.00;37.30;;;;;;8364953;28;19924;-44
2022/07/17 23:00:09;;;;;;;;;;;28.00;37.40;;;;;;8365585;28;19924;-43
2022/07/17 23:04:10;;;;;;;;;;;28.00;37.30;;;;;;8365116;28;20346;-43
2022/07/17 23:08:10;;;;;;;;;;;28.00;37.40;;;;;;8364758;28;19962;-43
2022/07/17 23:12:11;;;;;;;;;;;28.00;37.40;;;;;;8364748;28;20015;-43
2022/07/17 23:16:12;;;;;;;;;;;28.00;37.40;;;;;;8364973;28;19920;-43
2022/07/17 23:20:12;;;;;;;;;;;28.00;37.40;;;;;;8364265;28;20050;-44